createdAt,value
2019-01-27T00:01:57.478Z,70.84
2019-01-27T00:06:01.646Z,70.75
2019-01-27T00:10:06.660Z,70.67
2019-01-27T00:14:11.091Z,70.48
2019-01-27T00:18:15.271Z,70.37
2019-01-27T00:22:19.444Z,70.33
2019-01-27T00:26:23.645Z,70.27
2019-01-27T00:30:28.041Z,70.16
2019-01-27T00:34:32.511Z,70.10
2019-01-27T00:38:36.681Z,70.02
2019-01-27T00:42:40.859Z,69.90
2019-01-27T00:46:44.992Z,69.96
2019-01-27T00:50:49.209Z,69.92
2019-01-27T00:54:53.716Z,69.91
2019-01-27T00:58:57.878Z,69.83
2019-01-27T01:03:02.003Z,69.72
2019-01-27T01:07:06.178Z,69.62
2019-01-27T01:11:10.345Z,69.68
2019-01-27T01:15:16.774Z,69.74
2019-01-27T01:19:20.933Z,69.43
2019-01-27T01:23:25.168Z,69.31
2019-01-27T01:27:29.561Z,69.57
2019-01-27T01:31:33.744Z,69.43
2019-01-27T01:35:37.912Z,69.48
2019-01-27T01:39:42.069Z,69.64
2019-01-27T01:43:46.242Z,69.64
2019-01-27T01:47:50.420Z,69.73
2019-01-27T01:51:54.597Z,69.72
2019-01-27T01:55:58.771Z,69.75
2019-01-27T02:00:03.411Z,69.83
2019-01-27T02:04:07.586Z,69.88
2019-01-27T02:08:11.762Z,69.99
2019-01-27T02:12:15.885Z,70.16
2019-01-27T02:16:20.208Z,70.18
2019-01-27T02:20:24.360Z,70.21
2019-01-27T02:24:28.543Z,70.24
2019-01-27T02:28:32.682Z,70.23
2019-01-27T02:32:36.883Z,70.15
2019-01-27T02:36:41.109Z,70.32
2019-01-27T02:40:45.283Z,70.48
2019-01-27T02:44:49.469Z,70.65
2019-01-27T02:48:53.646Z,70.76
2019-01-27T02:52:57.792Z,70.80
2019-01-27T02:57:02.189Z,71.00
2019-01-27T03:01:06.555Z,71.25
2019-01-27T03:05:45.054Z,71.42
2019-01-27T03:09:49.270Z,72.12
2019-01-27T03:13:53.646Z,72.31
2019-01-27T03:17:57.770Z,72.29
2019-01-27T03:22:02.384Z,73.11
2019-01-27T03:26:06.832Z,73.29
2019-01-27T03:30:15.663Z,72.96
2019-01-27T03:34:20.037Z,73.00
2019-01-27T03:38:24.239Z,73.27
2019-01-27T03:42:28.430Z,72.82
2019-01-27T03:46:32.562Z,72.98
2019-01-27T03:50:36.742Z,73.01
2019-01-27T03:54:41.188Z,72.89
2019-01-27T03:58:45.363Z,73.00
2019-01-27T04:02:49.659Z,72.97
2019-01-27T04:06:53.854Z,73.08
2019-01-27T04:10:58.016Z,73.13
2019-01-27T04:15:02.202Z,72.96
2019-01-27T04:19:06.340Z,73.02
2019-01-27T04:23:10.529Z,73.01
2019-01-27T04:27:14.939Z,73.12
2019-01-27T04:31:19.433Z,73.23
2019-01-27T04:35:23.596Z,73.39
2019-01-27T04:39:27.774Z,73.42
2019-01-27T04:43:31.943Z,73.43
2019-01-27T04:47:36.078Z,73.29
2019-01-27T04:51:40.247Z,73.12
2019-01-27T04:55:44.403Z,73.02
2019-01-27T04:59:48.540Z,73.07
2019-01-27T05:04:04.314Z,72.97
2019-01-27T05:08:08.750Z,72.75
2019-01-27T05:12:12.924Z,72.98
2019-01-27T05:16:17.296Z,73.01
2019-01-27T05:20:21.477Z,72.65
2019-01-27T05:24:25.688Z,72.58
2019-01-27T05:28:30.120Z,72.65
2019-01-27T05:32:34.300Z,72.53
2019-01-27T05:36:38.752Z,72.49
2019-01-27T05:40:42.930Z,72.44
2019-01-27T05:44:47.433Z,72.41
2019-01-27T05:48:51.585Z,72.28
2019-01-27T05:52:55.765Z,72.47
2019-01-27T05:56:59.962Z,72.42
2019-01-27T06:01:04.082Z,72.25
2019-01-27T06:05:08.405Z,72.01
2019-01-27T06:09:12.587Z,71.80
2019-01-27T06:13:16.735Z,71.69
2019-01-27T06:17:20.916Z,71.19
2019-01-27T06:21:25.066Z,70.95
2019-01-27T06:25:29.274Z,70.56
2019-01-27T06:29:33.733Z,70.83
2019-01-27T06:34:06.059Z,71.07
2019-01-27T06:38:10.298Z,71.11
2019-01-27T06:42:14.462Z,71.13
2019-01-27T06:46:18.743Z,71.21
2019-01-27T06:50:22.989Z,71.21
2019-01-27T06:54:27.183Z,71.13
2019-01-27T06:58:50.385Z,71.42
2019-01-27T07:03:00.967Z,71.54
2019-01-27T07:07:18.150Z,71.82
2019-01-27T07:11:37.511Z,71.91
2019-01-27T07:16:01.490Z,72.03
2019-01-27T07:20:25.146Z,72.16
2019-01-27T07:25:00.168Z,72.22
2019-01-27T07:29:22.935Z,72.43
2019-01-27T07:33:43.767Z,72.46
2019-01-27T07:37:59.786Z,71.84
2019-01-27T07:42:25.222Z,70.12
2019-01-27T07:46:36.189Z,70.25
2019-01-27T07:50:47.805Z,70.32
2019-01-27T07:55:05.578Z,70.23
2019-01-27T07:59:29.363Z,70.35
2019-01-27T08:03:52.508Z,68.72
2019-01-27T08:08:08.737Z,68.24
2019-01-27T08:12:27.028Z,67.89
2019-01-27T08:16:48.843Z,67.89
2019-01-27T08:21:27.174Z,67.99
2019-01-27T08:25:56.488Z,68.44
2019-01-27T08:30:06.781Z,67.75
2019-01-27T08:34:27.437Z,66.65
2019-01-27T08:38:44.224Z,66.44
2019-01-27T08:42:57.658Z,66.87
2019-01-27T08:47:03.171Z,66.50
2019-01-27T08:51:07.358Z,66.93
2019-01-27T08:55:12.913Z,66.66
2019-01-27T08:59:17.383Z,66.78
2019-01-27T09:03:30.742Z,66.84
2019-01-27T09:08:08.833Z,67.17
2019-01-27T09:12:25.544Z,66.99
2019-01-27T09:16:50.841Z,66.11
2019-01-27T09:21:16.452Z,66.28
2019-01-27T09:25:58.257Z,66.10
2019-01-27T09:30:16.689Z,65.55
2019-01-27T09:34:48.499Z,65.91
2019-01-27T09:39:00.417Z,65.41
2019-01-27T09:43:24.359Z,64.96
2019-01-27T09:47:47.122Z,64.69
2019-01-27T09:52:17.933Z,64.29
2019-01-27T10:00:48.401Z,64.12
2019-01-27T10:04:57.811Z,64.64
2019-01-27T10:09:39.243Z,64.51
2019-01-27T10:14:11.516Z,64.76
2019-01-27T10:18:27.073Z,64.39
2019-01-27T10:22:59.301Z,66.08
2019-01-27T10:27:15.292Z,64.03
2019-01-27T10:31:41.425Z,63.78
2019-01-27T10:36:09.531Z,64.23
2019-01-27T10:40:31.468Z,64.12
2019-01-27T10:44:43.782Z,64.03
2019-01-27T10:49:25.591Z,63.18
2019-01-27T10:53:45.185Z,62.89
2019-01-27T10:58:03.587Z,62.91
2019-01-27T11:02:38.888Z,63.46
2019-01-27T11:07:11.257Z,63.86
2019-01-27T11:11:33.237Z,63.66
2019-01-27T11:15:48.434Z,63.37
2019-01-27T11:20:11.681Z,63.15
2019-01-27T11:24:25.630Z,63.42
2019-01-27T11:28:44.533Z,63.61
2019-01-27T11:32:59.952Z,64.00
2019-01-27T11:37:27.830Z,63.71
2019-01-27T11:41:54.093Z,64.69
2019-01-27T11:46:19.336Z,65.80
2019-01-27T11:50:27.560Z,66.23
2019-01-27T11:54:31.947Z,66.34
2019-01-27T11:58:36.246Z,68.24
2019-01-27T12:02:46.581Z,66.86
2019-01-27T12:06:46.573Z,66.10
2019-01-27T12:10:50.841Z,65.90
2019-01-27T12:14:55.091Z,65.35
2019-01-27T12:18:59.546Z,65.37
2019-01-27T12:23:03.752Z,65.44
2019-01-27T12:27:08.105Z,65.32
2019-01-27T12:31:12.606Z,65.65
2019-01-27T12:35:17.273Z,65.61
2019-01-27T12:39:21.605Z,65.32
2019-01-27T12:43:26.148Z,65.42
2019-01-27T12:47:30.460Z,65.11
2019-01-27T12:51:34.667Z,65.45
2019-01-27T12:55:38.926Z,65.51
2019-01-27T12:59:43.197Z,65.63
2019-01-27T13:03:47.404Z,66.29
2019-01-27T13:07:51.726Z,66.30
2019-01-27T13:11:57.809Z,65.83
2019-01-27T13:16:02.111Z,65.87
2019-01-27T13:20:07.061Z,65.89
2019-01-27T13:24:11.544Z,66.21
2019-01-27T13:28:15.803Z,66.31
2019-01-27T13:32:20.083Z,66.24
2019-01-27T13:36:24.718Z,66.17
2019-01-27T13:40:29.082Z,66.14
2019-01-27T13:44:33.386Z,66.14
2019-01-27T13:48:37.689Z,66.14
2019-01-27T13:52:41.937Z,65.98
2019-01-27T13:56:46.227Z,66.06
2019-01-27T14:00:50.660Z,65.98
2019-01-27T14:04:54.931Z,66.09
2019-01-27T14:08:59.215Z,66.37
2019-01-27T14:13:04.011Z,66.20
2019-01-27T14:17:08.455Z,66.52
2019-01-27T14:21:16.658Z,66.39
2019-01-27T14:25:20.148Z,67.23
2019-01-27T14:29:24.461Z,66.47
2019-01-27T14:33:28.767Z,67.16
2019-01-27T14:37:33.197Z,67.16
2019-01-27T14:41:37.466Z,66.17
2019-01-27T14:45:41.691Z,65.82
2019-01-27T14:49:46.214Z,66.62
2019-01-27T14:53:50.513Z,66.17
2019-01-27T14:57:54.827Z,66.23
2019-01-27T15:01:59.127Z,66.03
2019-01-27T15:06:03.567Z,66.02
2019-01-27T15:10:09.522Z,66.21
2019-01-27T15:14:13.898Z,66.42
2019-01-27T15:18:19.737Z,66.46
2019-01-27T15:22:24.188Z,66.32
2019-01-27T15:26:28.522Z,66.30
2019-01-27T15:30:33.376Z,66.54
2019-01-27T15:34:37.653Z,68.01
2019-01-27T15:38:42.026Z,67.20
2019-01-27T15:42:46.373Z,67.06
2019-01-27T15:46:50.780Z,67.17
2019-01-27T15:50:55.044Z,67.30
2019-01-27T15:54:59.313Z,67.52
2019-01-27T15:59:03.596Z,67.72
2019-01-27T16:03:07.841Z,67.85
2019-01-27T16:07:12.108Z,68.08
2019-01-27T16:11:16.406Z,68.15
2019-01-27T16:15:23.148Z,68.07
2019-01-27T16:19:27.504Z,68.08
2019-01-27T16:23:52.651Z,67.98
2019-01-27T16:27:57.183Z,67.85
2019-01-27T16:32:08.899Z,67.79
2019-01-27T16:36:13.243Z,67.84
2019-01-27T16:40:17.470Z,67.82
2019-01-27T16:44:21.831Z,67.88
2019-01-27T16:48:26.157Z,67.91
2019-01-27T16:52:30.404Z,67.97
2019-01-27T16:56:34.687Z,67.96
2019-01-27T17:00:39.039Z,68.00
2019-01-27T17:04:43.856Z,68.04
2019-01-27T17:08:48.157Z,68.17
2019-01-27T17:12:52.556Z,68.42
2019-01-27T17:16:56.835Z,68.59
2019-01-27T17:21:01.068Z,68.66
2019-01-27T17:25:06.471Z,68.62
2019-01-27T17:29:10.829Z,68.76
2019-01-27T17:33:15.219Z,68.93
2019-01-27T17:37:19.513Z,68.93
2019-01-27T17:41:23.835Z,68.89
2019-01-27T17:45:28.320Z,69.10
2019-01-27T17:49:32.603Z,69.23
2019-01-27T17:53:46.403Z,69.25
2019-01-27T17:57:58.225Z,69.39
2019-01-27T18:02:39.419Z,69.47
2019-01-27T18:06:54.876Z,69.50
2019-01-27T18:11:36.538Z,69.32
2019-01-27T18:15:40.882Z,69.18
2019-01-27T18:19:45.149Z,69.26
2019-01-27T18:23:49.886Z,69.30
2019-01-27T18:27:54.313Z,69.24
2019-01-27T18:31:58.577Z,69.24
2019-01-27T18:36:02.886Z,69.23
2019-01-27T18:40:08.559Z,69.16
2019-01-27T18:44:12.938Z,69.15
2019-01-27T18:48:17.332Z,69.23
2019-01-27T18:52:21.602Z,69.40
2019-01-27T18:56:44.825Z,69.48
2019-01-27T19:01:11.054Z,69.28
2019-01-27T19:05:28.389Z,69.17
2019-01-27T19:09:42.099Z,69.22
2019-01-27T19:14:04.090Z,69.34
2019-01-27T19:18:27.178Z,69.53
2019-01-27T19:22:42.172Z,69.62
2019-01-27T19:26:57.887Z,69.61
2019-01-27T19:31:21.163Z,69.64
2019-01-27T19:35:36.259Z,69.59
2019-01-27T19:39:58.122Z,69.50
2019-01-27T19:44:17.948Z,69.61
2019-01-27T19:48:44.472Z,69.59
2019-01-27T19:52:59.307Z,69.53
2019-01-27T19:57:09.230Z,69.62
2019-01-27T20:01:30.212Z,69.72
2019-01-27T20:05:59.215Z,69.86
2019-01-27T20:10:15.181Z,69.89
2019-01-27T20:14:36.871Z,69.83
2019-01-27T20:18:54.231Z,69.93
2019-01-27T20:23:15.972Z,70.09
2019-01-27T20:27:39.146Z,70.21
2019-01-27T20:32:02.518Z,70.25
2019-01-27T20:36:24.542Z,70.37
2019-01-27T20:40:56.768Z,70.38
2019-01-27T20:45:22.905Z,70.37
2019-01-27T20:49:40.803Z,70.41
2019-01-27T20:54:04.165Z,70.42
2019-01-27T20:58:36.493Z,70.42
2019-01-27T21:03:12.073Z,70.62
2019-01-27T21:07:27.587Z,70.79
2019-01-27T21:12:02.916Z,71.01
2019-01-27T21:16:32.136Z,71.17
2019-01-27T21:20:36.389Z,71.10
2019-01-27T21:24:40.640Z,71.12
2019-01-27T21:28:44.903Z,71.09
2019-01-27T21:32:49.579Z,71.10
2019-01-27T21:41:38.787Z,71.12
2019-01-27T21:45:43.196Z,71.05
2019-01-27T21:49:50.701Z,71.14
2019-01-27T21:53:55.001Z,71.23
2019-01-27T21:57:59.277Z,71.36
2019-01-27T22:02:03.626Z,71.45
2019-01-27T22:06:07.992Z,71.52
2019-01-27T22:10:13.256Z,71.58
2019-01-27T22:14:18.531Z,71.54
2019-01-27T22:18:24.147Z,71.63
2019-01-27T22:22:28.423Z,71.56
2019-01-27T22:26:32.822Z,71.53
2019-01-27T22:30:37.122Z,71.58
2019-01-27T22:34:41.417Z,71.63
2019-01-27T22:38:45.783Z,71.70
2019-01-27T22:42:50.076Z,71.79
2019-01-27T22:46:54.402Z,71.80
2019-01-27T22:50:59.740Z,72.23
2019-01-27T22:55:12.892Z,71.96
2019-01-27T22:59:17.148Z,72.10
2019-01-27T23:03:21.539Z,72.23
2019-01-27T23:07:25.841Z,72.28
2019-01-27T23:11:30.107Z,72.44
2019-01-27T23:15:34.330Z,72.25
2019-01-27T23:19:38.604Z,72.40
2019-01-27T23:23:42.888Z,72.44
2019-01-27T23:27:47.245Z,72.49
2019-01-27T23:31:51.530Z,72.52
2019-01-27T23:35:55.891Z,72.64
2019-01-27T23:40:00.233Z,72.52
2019-01-27T23:44:04.993Z,72.56
2019-01-27T23:48:09.353Z,72.90
2019-01-27T23:52:13.656Z,72.75
2019-01-27T23:56:17.925Z,72.81
